Trenton, Georgia
Current Conditions -  °F | °C
As of 3:53 PM on Friday 19 Dec 2014 (Local Time) from KCHA Reporting Station
Broken Clouds Broken Clouds  
Wind Chill: 44°   Ceiling: 20000
Heat Index: 47°   Visibility: 10mi
Dew Point: 27°   Wind: 6mph
Humidity: 46%   Direction: 30°NNE
Pressure: 30.16"   Gusts: NA
Location:  34.87°N, 85.51°W
Report Text: KCHA 192053Z 03005KT 10SM SCT050 BKN200 BKN250 08/M03 A3016 RMK AO2 SLP217 T00831028 55009
Loading
Personal Weather Stations






























Interactive Weather Map New forecast layout! Learn more

10-Day Weather Forecast

Advertisements
Track Severe Weather on mobile